createdAt,value
2023-03-26T00:01:49.990Z,1.46
2023-03-26T00:04:21.900Z,1.47
2023-03-26T00:06:50.440Z,1.46
2023-03-26T00:09:19.247Z,1.57
2023-03-26T00:11:47.375Z,1.54
2023-03-26T00:14:17.947Z,1.59
2023-03-26T00:16:47.670Z,1.52
2023-03-26T00:19:15.761Z,1.50
2023-03-26T00:21:43.586Z,1.54
2023-03-26T00:24:15.145Z,1.53
2023-03-26T00:26:44.594Z,1.36
2023-03-26T00:29:13.864Z,1.38
2023-03-26T00:31:47.183Z,1.40
2023-03-26T00:34:15.730Z,1.34
2023-03-26T00:36:43.970Z,1.44
2023-03-26T00:39:11.905Z,1.31
2023-03-26T00:41:43.029Z,1.26
2023-03-26T00:44:11.519Z,1.32
2023-03-26T00:46:39.806Z,1.41
2023-03-26T00:49:11.097Z,1.44
2023-03-26T00:51:39.608Z,1.37
2023-03-26T00:54:08.759Z,1.28
2023-03-26T00:56:37.048Z,1.27
2023-03-26T00:59:05.291Z,1.12
2023-03-26T01:01:33.397Z,1.16
2023-03-26T01:04:28.220Z,1.24
2023-03-26T01:06:56.951Z,1.07
2023-03-26T01:09:33.548Z,1.04
2023-03-26T01:12:03.369Z,1.23
2023-03-26T01:14:31.866Z,1.16
2023-03-26T01:17:02.776Z,1.19
2023-03-26T01:19:40.593Z,1.16
2023-03-26T01:22:12.193Z,1.24
2023-03-26T01:24:42.484Z,1.20
2023-03-26T01:27:28.846Z,1.09
2023-03-26T01:30:05.082Z,1.03
2023-03-26T01:32:51.319Z,1.10
2023-03-26T01:35:34.453Z,1.03
2023-03-26T01:38:22.970Z,1.13
2023-03-26T01:41:00.020Z,1.16
2023-03-26T01:43:37.685Z,1.10
2023-03-26T01:46:10.398Z,1.18
2023-03-26T01:48:41.891Z,1.23
2023-03-26T01:51:11.478Z,1.13
2023-03-26T01:53:46.187Z,1.23
2023-03-26T01:56:23.023Z,1.19
2023-03-26T01:59:07.767Z,1.33
2023-03-26T02:01:46.152Z,1.32
2023-03-26T02:04:24.780Z,1.30
2023-03-26T02:07:02.126Z,1.29
2023-03-26T02:09:37.705Z,1.38
2023-03-26T02:12:09.479Z,1.20
2023-03-26T02:14:37.761Z,1.32
2023-03-26T02:17:06.111Z,1.20
2023-03-26T02:19:34.054Z,1.24
2023-03-26T02:22:02.078Z,1.33
2023-03-26T02:24:30.029Z,1.17
2023-03-26T02:26:58.118Z,1.24
2023-03-26T02:29:27.662Z,1.59
2023-03-26T02:31:55.693Z,1.44
2023-03-26T02:34:23.586Z,1.45
2023-03-26T02:36:51.609Z,1.34
2023-03-26T02:39:19.730Z,1.45
2023-03-26T02:41:47.662Z,1.43
2023-03-26T02:44:15.717Z,1.31
2023-03-26T02:46:45.004Z,1.33
2023-03-26T02:49:12.982Z,1.30
2023-03-26T02:51:40.876Z,1.32
2023-03-26T02:54:10.151Z,1.39
2023-03-26T02:56:38.202Z,1.39
2023-03-26T02:59:06.104Z,1.46
2023-03-26T03:01:34.961Z,1.54
2023-03-26T03:04:05.221Z,1.64
2023-03-26T03:06:33.173Z,1.55
2023-03-26T03:09:02.782Z,1.70
2023-03-26T03:11:30.714Z,1.61
2023-03-26T03:13:58.839Z,1.68
2023-03-26T03:16:27.554Z,1.75
2023-03-26T03:18:58.056Z,1.62
2023-03-26T03:21:29.845Z,1.68
2023-03-26T03:23:59.831Z,1.53
2023-03-26T03:26:31.973Z,1.69
2023-03-26T03:29:00.097Z,2.04
2023-03-26T03:31:28.813Z,2.02
2023-03-26T03:33:56.956Z,1.84
2023-03-26T03:36:27.626Z,2.07
2023-03-26T03:39:02.191Z,2.52
2023-03-26T03:41:30.416Z,2.72
2023-03-26T03:43:59.838Z,2.70
2023-03-26T03:46:28.103Z,2.62
2023-03-26T03:48:56.091Z,2.38
2023-03-26T03:51:24.201Z,2.29
2023-03-26T03:53:52.768Z,2.30
2023-03-26T03:56:24.082Z,2.12
2023-03-26T03:58:52.501Z,1.94
2023-03-26T04:01:22.762Z,1.91
2023-03-26T04:03:51.148Z,1.87
2023-03-26T04:06:19.476Z,2.01
2023-03-26T04:08:47.847Z,1.82
2023-03-26T04:11:16.130Z,1.88
2023-03-26T04:13:45.684Z,2.08
2023-03-26T04:16:13.648Z,2.04
2023-03-26T04:18:42.096Z,2.90
2023-03-26T04:21:12.460Z,3.58
2023-03-26T04:23:40.392Z,3.04
2023-03-26T04:26:10.505Z,2.53
2023-03-26T04:28:47.322Z,2.74
2023-03-26T04:31:18.836Z,2.38
2023-03-26T04:33:48.555Z,2.48
2023-03-26T04:36:17.621Z,2.31
2023-03-26T04:38:49.272Z,2.13
2023-03-26T04:41:17.352Z,2.21
2023-03-26T04:43:50.600Z,2.52
2023-03-26T04:46:21.624Z,2.36
2023-03-26T04:48:49.599Z,3.69
2023-03-26T04:51:18.997Z,4.91
2023-03-26T04:53:54.379Z,5.03
2023-03-26T04:56:37.487Z,4.07
2023-03-26T04:59:08.089Z,3.10
2023-03-26T05:01:37.788Z,2.71
2023-03-26T05:04:06.224Z,2.40
2023-03-26T05:06:34.421Z,1.86
2023-03-26T05:09:03.239Z,1.55
2023-03-26T05:11:31.133Z,1.66
2023-03-26T05:13:59.053Z,1.64
2023-03-26T05:16:29.330Z,1.61
2023-03-26T05:18:57.245Z,1.83
2023-03-26T05:21:25.220Z,1.54
2023-03-26T05:23:53.115Z,1.98
2023-03-26T05:26:21.314Z,2.12
2023-03-26T05:28:49.259Z,1.88
2023-03-26T05:31:21.181Z,1.60
2023-03-26T05:33:50.756Z,1.75
2023-03-26T05:36:19.183Z,1.83
2023-03-26T05:38:49.613Z,1.82
2023-03-26T05:41:18.950Z,1.81
2023-03-26T05:43:47.825Z,1.95
2023-03-26T05:46:16.446Z,1.81
2023-03-26T05:48:44.449Z,2.12
2023-03-26T05:51:15.492Z,2.51
2023-03-26T05:53:43.662Z,2.48
2023-03-26T05:56:11.904Z,2.12
2023-03-26T05:58:39.885Z,2.10
2023-03-26T06:01:10.375Z,2.03
2023-03-26T06:03:40.732Z,2.08
2023-03-26T06:06:09.974Z,2.11
2023-03-26T06:08:39.388Z,1.97
2023-03-26T06:11:08.379Z,2.19
2023-03-26T06:13:36.368Z,2.30
2023-03-26T06:16:04.312Z,2.17
2023-03-26T06:18:32.425Z,2.35
2023-03-26T06:21:00.572Z,2.24
2023-03-26T06:23:28.427Z,2.36
2023-03-26T06:25:57.772Z,2.31
2023-03-26T06:28:26.481Z,2.29
2023-03-26T06:30:54.733Z,2.26
2023-03-26T06:33:24.527Z,2.34
2023-03-26T06:35:52.607Z,2.33
2023-03-26T06:38:20.508Z,2.19
2023-03-26T06:40:48.344Z,2.07
2023-03-26T06:43:17.726Z,2.30
2023-03-26T06:45:45.666Z,2.40
2023-03-26T06:48:13.551Z,2.33
2023-03-26T06:50:41.420Z,2.54
2023-03-26T06:53:10.095Z,2.26
2023-03-26T06:55:40.410Z,2.31
2023-03-26T06:58:08.292Z,2.41
2023-03-26T07:00:37.582Z,2.38
2023-03-26T07:03:06.618Z,2.60
2023-03-26T07:05:34.557Z,2.36
2023-03-26T07:08:02.937Z,2.25
2023-03-26T07:10:30.882Z,2.57
2023-03-26T07:12:58.780Z,2.79
2023-03-26T07:15:26.772Z,2.98
2023-03-26T07:17:56.387Z,4.51
2023-03-26T07:20:24.872Z,3.80
2023-03-26T07:22:54.613Z,3.08
2023-03-26T07:25:23.209Z,2.65
2023-03-26T07:28:05.433Z,2.54
2023-03-26T07:30:47.664Z,2.58
2023-03-26T07:33:25.767Z,2.88
2023-03-26T07:36:07.999Z,2.52
2023-03-26T07:38:52.289Z,2.53
2023-03-26T07:41:31.810Z,2.65
2023-03-26T07:44:21.158Z,2.48
2023-03-26T07:46:53.559Z,2.64
2023-03-26T07:49:23.496Z,2.55
2023-03-26T07:51:51.952Z,2.96
2023-03-26T07:54:20.757Z,2.57
2023-03-26T07:56:58.731Z,2.55
2023-03-26T07:59:33.872Z,2.69
2023-03-26T08:02:32.342Z,3.05
2023-03-26T08:05:21.325Z,2.84
2023-03-26T08:08:06.297Z,2.54
2023-03-26T08:10:43.147Z,2.71
2023-03-26T08:13:28.814Z,2.84
2023-03-26T08:16:08.871Z,2.68
2023-03-26T08:18:50.345Z,2.85
2023-03-26T08:21:27.558Z,3.00
2023-03-26T08:24:03.602Z,2.67
2023-03-26T08:26:44.164Z,6.04
2023-03-26T08:29:26.663Z,4.62
2023-03-26T08:31:57.452Z,6.85
2023-03-26T08:34:25.549Z,6.97
2023-03-26T08:36:54.812Z,4.48
2023-03-26T08:39:23.374Z,3.46
2023-03-26T08:42:31.332Z,3.44
2023-03-26T08:45:52.067Z,4.06
2023-03-26T08:48:59.814Z,2.86
2023-03-26T08:51:57.589Z,3.22
2023-03-26T08:54:48.435Z,3.28
2023-03-26T08:57:50.973Z,3.05
2023-03-26T09:00:45.676Z,3.07
2023-03-26T09:03:53.700Z,3.34
2023-03-26T09:07:06.782Z,2.92
2023-03-26T09:10:17.749Z,2.67
2023-03-26T09:13:29.330Z,2.63
2023-03-26T09:16:28.442Z,2.39
2023-03-26T09:19:36.636Z,2.60
2023-03-26T09:22:54.322Z,2.72
2023-03-26T09:25:54.330Z,2.69
2023-03-26T09:29:13.233Z,3.00
2023-03-26T09:32:24.795Z,3.03
2023-03-26T09:35:13.611Z,3.84
2023-03-26T09:37:59.485Z,3.35
2023-03-26T09:40:38.772Z,2.88
2023-03-26T09:43:43.452Z,2.82
2023-03-26T09:46:28.885Z,3.16
2023-03-26T09:49:32.159Z,3.69
2023-03-26T09:52:17.449Z,3.23
2023-03-26T09:55:20.318Z,3.00
2023-03-26T09:58:05.824Z,3.51
2023-03-26T10:00:45.348Z,3.77
2023-03-26T10:03:42.098Z,5.04
2023-03-26T10:06:28.037Z,4.08
2023-03-26T10:09:11.602Z,2.74
2023-03-26T10:11:59.248Z,2.65
2023-03-26T10:14:36.148Z,5.90
2023-03-26T10:17:32.019Z,4.95
2023-03-26T10:20:19.465Z,3.54
2023-03-26T10:23:02.855Z,3.48
2023-03-26T10:25:56.792Z,2.63
2023-03-26T10:28:58.455Z,3.50
2023-03-26T10:31:49.422Z,2.97
2023-03-26T10:34:47.764Z,4.27
2023-03-26T10:37:33.958Z,4.52
2023-03-26T10:40:25.654Z,4.71
2023-03-26T10:43:38.342Z,3.23
2023-03-26T10:46:31.693Z,4.37
2023-03-26T10:49:35.158Z,4.33
2023-03-26T10:52:07.467Z,3.74
2023-03-26T10:54:45.962Z,4.87
2023-03-26T10:57:34.896Z,5.65
2023-03-26T11:00:15.998Z,3.72
2023-03-26T11:03:00.026Z,3.03
2023-03-26T11:05:49.120Z,3.96
2023-03-26T11:08:31.147Z,6.21
2023-03-26T11:11:13.085Z,5.49
2023-03-26T11:13:54.807Z,4.02
2023-03-26T11:16:36.024Z,4.94
2023-03-26T11:19:14.520Z,5.72
2023-03-26T11:21:55.280Z,3.42
2023-03-26T11:24:49.053Z,3.05
2023-03-26T11:27:32.959Z,3.58
2023-03-26T11:30:14.163Z,3.36
2023-03-26T11:32:46.999Z,2.83
2023-03-26T11:35:39.706Z,3.68
2023-03-26T11:38:19.513Z,3.21
2023-03-26T11:40:51.397Z,2.66
2023-03-26T11:43:27.319Z,2.80
2023-03-26T11:45:55.590Z,2.79
2023-03-26T11:48:29.825Z,2.91
2023-03-26T11:51:05.883Z,2.88
2023-03-26T11:53:39.623Z,2.55
2023-03-26T11:56:17.176Z,2.66
2023-03-26T11:58:53.045Z,2.63
2023-03-26T12:01:30.179Z,2.36
2023-03-26T12:04:04.156Z,2.40
2023-03-26T12:06:33.010Z,2.46
2023-03-26T12:09:02.598Z,1.86
2023-03-26T12:11:35.477Z,1.95
2023-03-26T12:14:06.205Z,1.84
2023-03-26T12:16:36.282Z,2.01
2023-03-26T12:19:18.398Z,1.80
2023-03-26T12:21:48.778Z,3.92
2023-03-26T12:24:29.542Z,3.21
2023-03-26T12:27:02.069Z,2.79
2023-03-26T12:29:34.486Z,2.98
2023-03-26T12:32:08.283Z,2.34
2023-03-26T12:34:39.556Z,2.50
2023-03-26T12:37:29.428Z,2.16
2023-03-26T12:40:15.137Z,2.65
2023-03-26T12:44:53.521Z,3.02
2023-03-26T12:45:44.593Z,3.27
2023-03-26T12:48:16.681Z,3.35
2023-03-26T12:50:57.281Z,2.43
2023-03-26T12:53:44.665Z,2.46
2023-03-26T12:56:24.501Z,3.44
2023-03-26T12:59:05.434Z,2.94
2023-03-26T13:01:53.406Z,2.28
2023-03-26T13:05:02.163Z,2.62
2023-03-26T13:07:52.705Z,2.39
2023-03-26T13:10:49.506Z,2.07
2023-03-26T13:13:52.727Z,1.52
2023-03-26T13:16:32.023Z,1.68
2023-03-26T13:19:10.314Z,2.13
2023-03-26T13:21:56.686Z,3.13
2023-03-26T13:24:38.954Z,3.62
2023-03-26T13:27:27.626Z,3.57
2023-03-26T13:30:07.638Z,3.15
2023-03-26T13:32:52.073Z,3.72
2023-03-26T13:35:34.683Z,3.46
2023-03-26T13:38:14.250Z,3.06
2023-03-26T13:40:58.446Z,2.69
2023-03-26T13:43:45.697Z,3.41
2023-03-26T13:46:29.359Z,2.85
2023-03-26T13:49:01.316Z,2.76
2023-03-26T13:51:37.537Z,3.12
2023-03-26T13:54:17.735Z,3.22
2023-03-26T13:56:51.640Z,2.62
2023-03-26T13:59:28.939Z,3.64
2023-03-26T14:02:04.821Z,1.76
2023-03-26T14:04:39.836Z,1.09
2023-03-26T14:07:15.774Z,1.08
2023-03-26T14:09:50.173Z,3.04
2023-03-26T14:12:30.289Z,1.13
2023-03-26T14:15:04.392Z,1.25
2023-03-26T14:17:41.057Z,1.50
2023-03-26T14:20:50.233Z,1.55
2023-03-26T14:23:49.924Z,1.25
2023-03-26T14:26:32.556Z,1.20
2023-03-26T14:29:24.242Z,1.30
2023-03-26T14:32:05.955Z,1.46
2023-03-26T14:34:56.194Z,1.24
2023-03-26T14:37:49.207Z,1.00
2023-03-26T14:40:31.757Z,3.26
2023-03-26T14:43:23.215Z,4.12
2023-03-26T14:46:08.738Z,1.29
2023-03-26T14:49:00.443Z,1.40
2023-03-26T14:51:48.958Z,1.64
2023-03-26T14:54:23.792Z,1.15
2023-03-26T14:57:22.765Z,0.80
2023-03-26T15:00:32.762Z,1.07
2023-03-26T15:03:49.161Z,1.08
2023-03-26T15:06:59.483Z,1.47
2023-03-26T15:10:08.778Z,1.37
2023-03-26T15:13:13.471Z,1.34
2023-03-26T15:16:17.491Z,2.35
2023-03-26T15:19:22.021Z,8.14
2023-03-26T15:22:38.983Z,5.15
2023-03-26T15:25:44.544Z,3.36
2023-03-26T15:28:48.056Z,2.40
2023-03-26T15:31:55.931Z,2.22
2023-03-26T15:35:04.160Z,2.13
2023-03-26T15:38:20.875Z,3.02
2023-03-26T15:41:16.616Z,1.80
2023-03-26T15:44:25.427Z,1.45
2023-03-26T15:47:01.914Z,1.89
2023-03-26T15:49:41.919Z,1.79
2023-03-26T15:52:25.734Z,2.12
2023-03-26T15:55:05.114Z,2.22
2023-03-26T15:57:44.008Z,1.92
2023-03-26T16:00:31.853Z,2.02
2023-03-26T16:03:21.597Z,2.14
2023-03-26T16:06:28.402Z,3.03
2023-03-26T16:09:27.491Z,4.23
2023-03-26T16:11:59.866Z,9.81
2023-03-26T16:14:44.731Z,7.78
2023-03-26T16:17:17.614Z,4.49
2023-03-26T16:20:13.654Z,10.19
2023-03-26T16:22:56.050Z,8.44
2023-03-26T16:25:32.805Z,12.10
2023-03-26T16:28:31.063Z,8.05
2023-03-26T16:31:37.830Z,6.60
2023-03-26T16:34:30.054Z,5.64
2023-03-26T16:37:00.555Z,4.28
2023-03-26T16:39:44.255Z,6.95
2023-03-26T16:42:39.020Z,13.09
2023-03-26T16:45:20.889Z,4.59
2023-03-26T16:48:03.030Z,3.90
2023-03-26T16:50:45.162Z,3.30
2023-03-26T16:53:29.916Z,3.07
2023-03-26T16:56:04.322Z,2.42
2023-03-26T16:58:44.788Z,3.25
2023-03-26T17:01:28.747Z,3.19
2023-03-26T17:04:03.742Z,1.45
2023-03-26T17:07:01.596Z,1.26
2023-03-26T17:09:46.493Z,1.43
2023-03-26T17:12:26.448Z,1.34
2023-03-26T17:15:08.392Z,2.17
2023-03-26T17:17:54.181Z,2.72
2023-03-26T17:20:36.936Z,2.98
2023-03-26T17:23:23.931Z,1.72
2023-03-26T17:26:07.166Z,1.76
2023-03-26T17:28:50.946Z,2.20
2023-03-26T17:31:34.308Z,2.28
2023-03-26T17:34:45.555Z,2.56
2023-03-26T17:37:43.374Z,2.46
2023-03-26T17:40:51.398Z,2.03
2023-03-26T17:43:40.301Z,1.86
2023-03-26T17:46:23.277Z,2.05
2023-03-26T17:49:00.387Z,2.21
2023-03-26T17:51:43.387Z,2.17
2023-03-26T17:54:23.964Z,1.58
2023-03-26T17:56:54.399Z,1.80
2023-03-26T17:59:26.575Z,2.33
2023-03-26T18:01:58.963Z,4.09
2023-03-26T18:04:33.818Z,2.99
2023-03-26T18:07:29.755Z,2.62
2023-03-26T18:10:20.245Z,2.59
2023-03-26T18:13:20.118Z,2.54
2023-03-26T18:16:01.251Z,2.33
2023-03-26T18:18:36.805Z,3.39
2023-03-26T18:21:08.164Z,2.51
2023-03-26T18:23:39.614Z,2.35
2023-03-26T18:26:17.260Z,2.59
2023-03-26T18:28:50.341Z,3.32
2023-03-26T18:31:20.512Z,5.92
2023-03-26T18:33:51.218Z,4.86
2023-03-26T18:36:19.626Z,3.13
2023-03-26T18:38:48.832Z,2.62
2023-03-26T18:41:28.303Z,2.05
2023-03-26T18:43:57.470Z,1.98
2023-03-26T18:46:26.005Z,1.87
2023-03-26T18:48:55.790Z,1.68
2023-03-26T18:51:26.743Z,1.71
2023-03-26T18:53:59.294Z,1.65
2023-03-26T18:56:37.168Z,1.30
2023-03-26T18:59:07.436Z,1.37
2023-03-26T19:01:38.468Z,1.77
2023-03-26T19:04:09.314Z,2.02
2023-03-26T19:06:47.138Z,1.37
2023-03-26T19:09:31.086Z,1.31
2023-03-26T19:12:08.485Z,1.01
2023-03-26T19:14:59.196Z,0.83
2023-03-26T19:17:31.618Z,1.02
2023-03-26T19:19:59.950Z,1.11
2023-03-26T19:22:31.509Z,1.37
2023-03-26T19:25:03.845Z,1.25
2023-03-26T19:27:33.807Z,1.18
2023-03-26T19:30:01.961Z,1.24
2023-03-26T19:32:32.979Z,1.39
2023-03-26T19:35:02.238Z,1.51
2023-03-26T19:37:32.420Z,1.45
2023-03-26T19:40:15.409Z,1.24
2023-03-26T19:42:45.749Z,1.11
2023-03-26T19:45:19.182Z,1.17
2023-03-26T19:48:00.053Z,1.33
2023-03-26T19:50:34.300Z,1.66
2023-03-26T19:53:18.908Z,1.73
2023-03-26T19:55:58.819Z,1.54
2023-03-26T19:58:28.657Z,1.56
2023-03-26T20:00:57.145Z,2.11
2023-03-26T20:03:29.961Z,2.00
2023-03-26T20:05:57.953Z,2.41
2023-03-26T20:08:28.015Z,2.85
2023-03-26T20:10:58.170Z,2.22
2023-03-26T20:13:28.206Z,2.18
2023-03-26T20:16:06.430Z,2.25
2023-03-26T20:18:34.997Z,1.75
2023-03-26T20:21:03.102Z,1.55
2023-03-26T20:23:31.203Z,1.57
2023-03-26T20:25:59.108Z,1.32
2023-03-26T20:28:28.720Z,1.37
2023-03-26T20:30:57.597Z,1.28
2023-03-26T20:33:27.662Z,1.21
2023-03-26T20:35:57.220Z,1.48
2023-03-26T20:38:39.129Z,1.41
2023-03-26T20:41:10.637Z,1.33
2023-03-26T20:43:40.032Z,1.30
2023-03-26T20:46:07.997Z,1.51
2023-03-26T20:48:35.840Z,1.51
2023-03-26T20:51:04.737Z,1.31
2023-03-26T20:53:32.716Z,1.16
2023-03-26T20:56:02.089Z,1.01
2023-03-26T20:58:32.391Z,1.45
2023-03-26T21:01:03.129Z,1.48
2023-03-26T21:03:31.080Z,1.39
2023-03-26T21:06:01.889Z,1.28
2023-03-26T21:08:35.404Z,1.43
2023-03-26T21:11:04.855Z,1.54
2023-03-26T21:13:40.168Z,1.41
2023-03-26T21:16:13.116Z,1.39
2023-03-26T21:18:42.082Z,1.39
2023-03-26T21:21:28.090Z,1.36
2023-03-26T21:24:05.101Z,1.32
2023-03-26T21:26:43.729Z,1.20
2023-03-26T21:29:12.846Z,1.14
2023-03-26T21:31:42.806Z,0.99
2023-03-26T21:34:13.274Z,1.17
2023-03-26T21:36:41.923Z,1.11
2023-03-26T21:39:11.944Z,1.14
2023-03-26T21:41:46.105Z,1.20
2023-03-26T21:44:15.326Z,1.35
2023-03-26T21:46:46.257Z,1.35
2023-03-26T21:49:16.572Z,1.04
2023-03-26T21:51:46.084Z,1.03
2023-03-26T21:54:23.668Z,0.99
2023-03-26T21:57:06.986Z,0.97
2023-03-26T21:59:44.107Z,1.06
2023-03-26T22:02:23.879Z,1.35
2023-03-26T22:04:58.710Z,1.19
2023-03-26T22:07:34.402Z,1.19
2023-03-26T22:10:02.225Z,1.03
2023-03-26T22:12:30.097Z,1.01
2023-03-26T22:14:58.131Z,1.20
2023-03-26T22:17:27.659Z,0.87
2023-03-26T22:19:56.082Z,1.07
2023-03-26T22:22:26.168Z,1.14
2023-03-26T22:24:54.170Z,0.98
2023-03-26T22:27:22.024Z,0.78
2023-03-26T22:29:50.187Z,0.78
2023-03-26T22:32:18.063Z,0.75
2023-03-26T22:34:47.276Z,0.75
2023-03-26T22:37:16.168Z,0.79
2023-03-26T22:39:44.141Z,0.85
2023-03-26T22:42:11.989Z,0.80
2023-03-26T22:44:39.857Z,0.76
2023-03-26T22:47:08.278Z,0.71
2023-03-26T22:49:36.278Z,0.82
2023-03-26T22:52:06.047Z,0.89
2023-03-26T22:54:34.490Z,0.97
2023-03-26T22:57:02.710Z,1.09
2023-03-26T22:59:30.645Z,1.01
2023-03-26T23:01:58.635Z,1.06
2023-03-26T23:04:31.103Z,1.06
2023-03-26T23:06:59.802Z,0.97
2023-03-26T23:09:29.555Z,0.99
2023-03-26T23:11:57.752Z,1.10
2023-03-26T23:14:25.634Z,1.22
2023-03-26T23:16:53.497Z,1.05
2023-03-26T23:19:21.579Z,1.00
2023-03-26T23:21:49.537Z,0.97
2023-03-26T23:24:17.355Z,1.23
2023-03-26T23:29:17.344Z,0.95
2023-03-26T23:31:45.327Z,1.00
2023-03-26T23:34:13.643Z,0.95
2023-03-26T23:36:42.024Z,1.07
2023-03-26T23:39:10.823Z,1.12
2023-03-26T23:41:39.328Z,1.06
2023-03-26T23:44:13.469Z,0.98
2023-03-26T23:46:42.785Z,1.01
2023-03-26T23:49:12.102Z,0.80
2023-03-26T23:51:40.009Z,0.76
2023-03-26T23:54:08.802Z,0.73
2023-03-26T23:56:36.872Z,0.85
2023-03-26T23:59:04.923Z,0.73
